createdAt,value
2022-11-24T00:09:53.262Z,93
2022-11-24T00:49:55.352Z,93
2022-11-24T00:59:55.529Z,93
2022-11-24T01:29:57.111Z,93
2022-11-24T01:39:57.264Z,94
2022-11-24T03:00:02.193Z,92
2022-11-24T03:20:04.761Z,92
2022-11-24T04:00:05.419Z,92
2022-11-24T04:10:05.688Z,92
2022-11-24T04:30:07.366Z,92
2022-11-24T04:40:08.313Z,91
2022-11-24T04:50:08.446Z,91
2022-11-24T05:00:09.113Z,91
2022-11-24T05:10:09.859Z,92
2022-11-24T05:20:10.686Z,92
2022-11-24T05:40:12.596Z,93
2022-11-24T07:24:44.532Z,92
2022-11-24T07:34:45.593Z,91
2022-11-24T07:44:46.421Z,91
2022-11-24T07:54:46.777Z,90
2022-11-24T08:04:47.512Z,89
2022-11-24T08:14:48.284Z,90
2022-11-24T08:24:48.500Z,89
2022-11-24T08:34:49.501Z,89
2022-11-24T08:44:56.583Z,89
2022-11-24T08:54:50.433Z,89
2022-11-24T09:04:50.630Z,89
2022-11-24T09:14:50.870Z,89
2022-11-24T09:24:51.289Z,90
2022-11-24T09:34:52.014Z,90
2022-11-24T09:44:52.849Z,90
2022-11-24T09:54:53.816Z,90
2022-11-24T10:04:54.168Z,90
2022-11-24T10:14:54.469Z,90
2022-11-24T10:24:55.223Z,90
2022-11-24T10:34:56.084Z,90
2022-11-24T10:44:56.369Z,90
2022-11-24T10:54:57.198Z,90
2022-11-24T11:04:57.607Z,91
2022-11-24T11:14:58.505Z,90
2022-11-24T11:24:59.444Z,90
2022-11-24T11:35:00.582Z,90
2022-11-24T11:45:01.248Z,90
2022-11-24T12:45:04.628Z,87
2022-11-24T13:45:08.759Z,85
2022-11-24T13:55:11.522Z,85
2022-11-24T14:05:09.632Z,84
2022-11-24T14:15:10.097Z,84
2022-11-24T14:25:10.906Z,84
2022-11-24T14:35:11.250Z,84
2022-11-24T14:55:22.208Z,85
2022-11-24T15:05:12.603Z,86
2022-11-24T15:15:13.501Z,86
2022-11-24T15:25:13.820Z,86
2022-11-24T15:35:14.553Z,87
2022-11-24T15:45:14.786Z,88
2022-11-24T15:55:15.444Z,89
2022-11-24T16:05:15.747Z,90
2022-11-24T16:15:15.969Z,91
2022-11-24T16:25:16.470Z,91
2022-11-24T16:35:16.578Z,91
2022-11-24T16:45:17.265Z,92
2022-11-24T16:55:18.332Z,92
2022-11-24T17:15:32.138Z,92
2022-11-24T17:25:20.994Z,92
2022-11-24T17:45:21.869Z,93
2022-11-24T17:55:22.925Z,93
2022-11-24T18:05:23.414Z,93
2022-11-24T18:15:23.537Z,93
2022-11-24T18:25:24.484Z,93
2022-11-24T18:35:25.445Z,93
2022-11-24T18:45:26.153Z,92
2022-11-24T18:55:26.383Z,91
2022-11-24T19:05:27.370Z,91
2022-11-24T19:15:28.071Z,91
2022-11-24T19:25:28.949Z,91
2022-11-24T19:35:29.600Z,91
2022-11-24T19:45:30.325Z,91
2022-11-24T19:55:30.728Z,91
2022-11-24T20:15:31.628Z,91
2022-11-24T20:35:32.711Z,91
2022-11-24T20:45:33.586Z,91
2022-11-24T20:55:33.967Z,91
2022-11-24T21:05:34.579Z,91
2022-11-24T21:15:35.300Z,91
2022-11-24T21:25:35.597Z,92
2022-11-24T21:45:36.408Z,92
2022-11-24T21:55:36.992Z,93
2022-11-24T22:05:37.142Z,93
2022-11-24T22:15:37.535Z,93
2022-11-24T22:35:38.256Z,93
2022-11-24T22:45:38.668Z,93
2022-11-24T22:55:38.805Z,93
2022-11-24T23:05:39.489Z,94
2022-11-24T23:15:40.373Z,94
2022-11-24T23:25:41.088Z,94
2022-11-24T23:35:41.346Z,94
2022-11-24T23:45:42.259Z,94
2022-11-24T23:55:43.310Z,94
